Science Garden, Philippines

12:32 PM PHT on February 09, 2016 (GMT +0800)
Ninoy Aquino International | | Change Station
CLOSE
Current Station
Airport
Location: Manila,
Elevation: 49 ft
Nearby Weather Stations

Elev 49 ft 14.51 °N, 121.00 °E | Updated 32 minutes ago

Mostly Cloudy
Mostly Cloudy
84 °F
Feels Like 88 °F
N
9
Wind Variable Wind from ESE

Today
High -- | Low -- °F
--% Chance of Precip.
Yesterday
High -- | Low -- °F
Precip. -- in
Pressure 29.98 in
Visibility 6.2 miles
Clouds Scattered Clouds 2500 ft
Mostly Cloudy 10000 ft
Heat Index 88 °F
Dew Point 70 °F
Humidity 62%
Rainfall 0.00 in
Snow Depth Not available.
6:22 AM 5:57 PM
New Moon, 0% visible
METAR RPLL 090400Z 12008KT 060V170 9999 SCT025 BKN100 29/21 Q1015 NOSIG RMK A2997
Pressure 29.98 in
Visibility 6.2 miles
Clouds Scattered Clouds 2500 ft
Mostly Cloudy 10000 ft
Heat Index 88 °F
Dew Point 70 °F
Humidity 62%
Rainfall 0.00 in
Snow Depth Not available.
6:22 AM 5:57 PM
New Moon, 0% visible
METAR RPLL 090400Z 12008KT 060V170 9999 SCT025 BKN100 29/21 Q1015 NOSIG RMK A2997

10-Day Weather Forecast

No radar image for this location.
×

Almanac

Astronomy

Feb. 09, 2016 Rise Set
Actual Time
Civil Twilight
Nautical Twilight
Astronomical Twilight
Moon
Length of Visible Light
Length of Day
Tomorrow will be .
, % of the Moon is Illuminated

Today's Extremes

Country Highs Country Lows

Community

WunderPhotos

Upload Photos

1,891,541 photos uploaded!

WunderBlog® & News

Nearby

Air Quality

  Air Quality AQ Index Pollutant
Not available.

Snow Depth

Station Depth Elevation

Earthquake Activity

City Distance Mag. Time & Date
Minimum magnitude displayed is 2.5.

Coastal Water Temperatures

Place Temperature

Stations

Nearby Weather Stations

Station Location Temp. Windchill Dew Point Humidity Wind Precip. Elev Updated Type